Main page
METAR-TAF:

METAR-TAF

Airports :

Dundee Airport

Dundee, Scotland

latitude: 56-27N, longitude: 003-01W, elevation: 4 m

Current weather observation

The report was made 12 hours and 47 minutes ago, at 14:50 UTC
Wind 16 kt from the West
Temperature 14°C
Humidity 63%
Pressure 1012 hPa
Visibility 10 km or more
Few clouds at a height of 3000 ft

METAR: EGPN 221450Z 26016KT 9999 FEW030 14/07 Q1012

Time: 04:37 (03:37 UTC)

Forecast

The report was made 16 hours and 43 minutes ago, at 10:54 UTC
Forecast valid from 22 at 12 UTC to 22 at 16 UTC
Wind 12 kt from the West
Visibility 10 km or more
Few clouds at a height of 2500 ft
Temporary
from 22 at 12 UTC to 22 at 16 UTC
Wind 18 kt from the West with gusts up to 28 kt

TAF: EGPN 221054Z 2212/2216 27012KT 9999 FEW025 TEMPO 2212/2216 28018G28KT

Weather observations and forecasts of more than 4000 airports (METAR and TAF reports).

The available stations are represented by yellow and red dots on the map.

Hover mouse over dot to see the name of the station.

Then click to see weather observations and forecasts.

To change the map : click on the green buttons with a black cross to zoom in, on the green button with a dash to zoom out, or on the green arrows for adjacent maps.


METAR-TAF: